Portada
METAR-TAF:

METAR-TAF

Aeroports :

Bordeus, França

latitud: 44-50N, longitud: 000-42W, altitud: 49 m

Observació

L'informe es va fer fa 31 minuts, a les 17:00 UTC
Vent 4 kt del Nord
Temperatura 21°C
Humitat 60%
Pressió 1019 hPa
Visibilitat 10 km o més
sense núvols per sota de 1500 mi sense presència de cumulonimbus.

METAR: LFBD 191700Z AUTO 01004KT CAVOK 21/13 Q1019 NOSIG

Hora: 19:31 (17:31 UTC)

Pronòstic

L'informe es va fer fa 6 hores i 31 minuts, a les 11:00 UTC
Pronòstic vàlid del 19 a les 12 UTC al 20 a les 18 UTC
Vent 5 kt del Nord/Nord-Est
Visibilitat 10 km o més
sense núvols per sota de 1500 mi sense presència de cumulonimbus.
Probabilitat 30%
l' 20 a les 02 UTC al 20 a les 06 UTC
Visibilitat: 3000 m
Boira superficial

TAF: LFBD 191100Z 1912/2018 03005KT CAVOK TX23/1915Z TN11/2006Z PROB30 2002/2006 3000 MIFG

Observacions i pronòstics meteorològics de més de 4000 aeroports (METAR i TAF).

Les estacions disponibles són els punts grocs i vermells al mapa.

Posi el ratolí al punt desitjat per veure el nom de l'estació.

Feu clic per veure les observacions i els pronòstics meteorològics.

Per canviar el mapa: feu clic els botons verds amb una creu de color negre per apropar; al botó verd amb un guió per allunyar la imatge; o en les fletxes verdes per a mapes adjacents.


METAR-TAF: